Time;durP1;ratioP1;P1;durP2;ratioP2;P2;SDS_P1;SDS_P2;PMS_P1;PMS_P2;Temp;Humidity;BMP_temperature;BMP_pressure;BME280_temperature;BME280_humidity;BME280_pressure;Samples;Min_cycle;Max_cycle;Signal;HPM_P1;HPM_P2
2021/12/30 00:02:22;;;;;;;0.00;0.00;;;8.80;99.10;;;;;;4176567;28;20095;-61
2021/12/30 00:04:45;;;;;;;0.00;0.00;;;8.70;99.10;;;;;;4169722;28;20127;-60
2021/12/30 00:07:09;;;;;;;0.00;0.00;;;8.60;99.20;;;;;;4169726;28;20077;-60
2021/12/30 00:09:31;;;;;;;0.00;0.00;;;8.60;99.30;;;;;;4164339;28;20076;-60
2021/12/30 00:11:54;;;;;;;0.00;0.00;;;8.60;99.50;;;;;;4168903;28;20088;-60
2021/12/30 00:14:41;;;;;;;0.00;0.00;;;8.60;99.50;;;;;;4154748;28;20060;-60
2021/12/30 00:17:07;;;;;;;0.00;0.00;;;8.70;99.40;;;;;;4168189;28;20476;-60
2021/12/30 00:19:37;;;;;;;0.00;0.00;;;8.80;99.30;;;;;;4190817;28;20056;-60
2021/12/30 00:22:06;;;;;;;0.00;0.00;;;8.90;99.20;;;;;;4174557;28;20056;-60
2021/12/30 00:24:32;;;;;;;0.00;0.00;;;8.90;98.80;;;;;;4146017;28;20072;-60
2021/12/30 00:26:55;;;;;;;0.00;0.00;;;8.80;98.80;;;;;;4161374;28;20531;-60
2021/12/30 00:29:17;;;;;;;0.00;0.00;;;8.70;99.10;;;;;;4161497;28;20045;-60
2021/12/30 00:31:41;;;;;;;0.00;0.00;;;8.60;99.30;;;;;;4160954;28;20057;-60
2021/12/30 00:34:03;;;;;;;0.00;0.00;;;8.60;99.50;;;;;;4161322;28;20115;-60
2021/12/30 00:36:27;;;;;;;0.00;0.00;;;8.60;99.50;;;;;;4161931;28;20471;-60
2021/12/30 00:38:50;;;;;;;0.00;0.00;;;8.60;99.60;;;;;;4163601;28;20132;-60
2021/12/30 00:41:19;;;;;;;0.00;0.00;;;8.60;99.70;;;;;;4179324;28;20175;-60
2021/12/30 00:43:42;;;;;;;0.00;0.00;;;8.60;99.90;;;;;;4163776;28;20048;-60
2021/12/30 00:46:06;;;;;;;0.00;0.00;;;8.80;99.80;;;;;;4163708;28;20157;-59
2021/12/30 00:48:37;;;;;;;0.00;0.00;;;8.90;99.50;;;;;;4136548;28;20046;-60
2021/12/30 00:51:00;;;;;;;0.00;0.00;;;9.00;99.50;;;;;;4173441;28;20051;-60
2021/12/30 00:53:26;;;;;;;0.00;0.00;;;9.10;99.30;;;;;;4177043;28;20049;-60
2021/12/30 00:55:48;;;;;;;0.00;0.00;;;9.10;99.20;;;;;;4169427;28;20087;-60
2021/12/30 00:58:19;;;;;;;0.00;0.00;;;9.10;99.20;;;;;;4190774;28;20052;-61
2021/12/30 01:00:45;;;;;;;0.00;0.00;;;9.10;99.40;;;;;;4143214;28;20591;-61
2021/12/30 01:03:09;;;;;;;0.00;0.00;;;9.20;99.30;;;;;;4176282;28;20045;-60
2021/12/30 01:05:32;;;;;;;0.00;0.00;;;9.30;99.20;;;;;;4168861;28;20102;-61
2021/12/30 01:07:56;;;;;;;0.00;0.00;;;9.40;99.00;;;;;;4178423;28;20127;-61
2021/12/30 01:10:25;;;;;;;0.00;0.00;;;9.40;99.20;;;;;;4179263;28;20519;-61
2021/12/30 01:12:48;;;;;;;0.00;0.00;;;9.40;99.30;;;;;;4170934;28;20048;-61
2021/12/30 01:15:16;;;;;;;0.00;0.00;;;9.40;99.20;;;;;;4162941;28;20072;-62
2021/12/30 01:17:53;;;;;;;0.00;0.00;;;9.50;99.40;;;;;;4186281;28;20071;-61
2021/12/30 01:20:29;;;;;;;0.00;0.00;;;9.60;99.00;;;;;;4179312;28;20053;-62
2021/12/30 01:22:53;;;;;;;0.00;0.00;;;9.60;98.90;;;;;;4174910;28;20124;-61
2021/12/30 01:25:22;;;;;;;0.00;0.00;;;9.60;99.00;;;;;;4172716;28;20094;-61
2021/12/30 01:28:04;;;;;;;0.00;0.00;;;9.60;98.80;;;;;;4185042;28;20091;-62
2021/12/30 01:30:29;;;;;;;0.00;0.00;;;9.60;98.80;;;;;;4152781;28;20506;-63
2021/12/30 01:32:53;;;;;;;0.00;0.00;;;9.60;98.80;;;;;;4146542;28;20088;-62
2021/12/30 01:35:25;;;;;;;0.00;0.00;;;9.70;98.70;;;;;;4161660;28;20506;-62
2021/12/30 01:37:48;;;;;;;0.00;0.00;;;9.60;98.70;;;;;;4154134;28;20513;-62
2021/12/30 01:40:13;;;;;;;0.00;0.00;;;9.60;98.60;;;;;;4151050;28;20054;-60
2021/12/30 01:42:44;;;;;;;0.00;0.00;;;9.60;98.50;;;;;;4157682;28;20042;-60
2021/12/30 01:45:08;;;;;;;0.00;0.00;;;9.50;98.70;;;;;;4176515;28;20388;-60
2021/12/30 01:47:31;;;;;;;0.00;0.00;;;9.50;98.70;;;;;;4160046;28;20107;-62
2021/12/30 01:49:53;;;;;;;0.00;0.00;;;9.30;98.70;;;;;;4176544;28;20049;-60
2021/12/30 01:52:15;;;;;;;0.00;0.00;;;9.30;98.70;;;;;;4162416;28;20068;-61
2021/12/30 01:54:38;;;;;;;0.00;0.00;;;9.10;98.60;;;;;;4192730;28;20079;-60
2021/12/30 01:57:04;;;;;;;0.00;0.00;;;9.00;98.90;;;;;;4179321;28;20576;-60
2021/12/30 01:59:27;;;;;;;0.00;0.00;;;9.00;99.10;;;;;;4179166;28;20056;-60
2021/12/30 02:01:56;;;;;;;0.00;0.00;;;8.90;99.20;;;;;;4168628;28;20481;-60
2021/12/30 02:04:25;;;;;;;0.00;0.00;;;8.90;99.40;;;;;;4162218;28;20042;-60
2021/12/30 02:06:47;;;;;;;0.00;0.00;;;8.80;99.60;;;;;;4162363;28;20080;-62
2021/12/30 02:09:09;;;;;;;0.00;0.00;;;8.70;99.90;;;;;;4148808;28;20431;-60
2021/12/30 02:11:32;;;;;;;0.00;0.00;;;8.70;99.90;;;;;;4176054;28;20037;-61
2021/12/30 02:13:54;;;;;;;0.00;0.00;;;8.70;99.90;;;;;;4162439;28;20084;-60
2021/12/30 02:16:18;;;;;;;0.00;0.00;;;8.70;99.90;;;;;;4162388;28;20057;-61
2021/12/30 02:18:41;;;;;;;0.00;0.00;;;8.80;99.90;;;;;;4161817;28;20065;-60
2021/12/30 02:21:03;;;;;;;0.00;0.00;;;8.90;99.90;;;;;;4161986;28;20041;-59
2021/12/30 02:23:31;;;;;;;0.00;0.00;;;9.00;99.90;;;;;;4162465;28;20530;-60
2021/12/30 02:26:06;;;;;;;0.00;0.00;;;9.10;99.90;;;;;;4162226;28;20514;-59
2021/12/30 02:28:32;;;;;;;0.00;0.00;;;9.20;99.90;;;;;;4161793;28;20038;-60
2021/12/30 02:30:57;;;;;;;0.00;0.00;;;9.20;99.90;;;;;;4162049;28;20602;-61
2021/12/30 02:33:20;;;;;;;0.00;0.00;;;9.40;99.90;;;;;;4161945;28;20053;-61
2021/12/30 02:35:43;;;;;;;0.00;0.00;;;9.30;99.70;;;;;;4162080;28;20454;-60
2021/12/30 02:38:06;;;;;;;0.00;0.00;;;9.20;99.70;;;;;;4162104;28;20042;-60
2021/12/30 02:40:33;;;;;;;0.00;0.00;;;9.20;99.50;;;;;;4161435;28;20061;-61
2021/12/30 02:42:55;;;;;;;0.00;0.00;;;9.10;99.50;;;;;;4162071;28;20045;-61
2021/12/30 02:45:17;;;;;;;0.00;0.00;;;9.20;99.40;;;;;;4161890;28;20041;-62
2021/12/30 02:47:40;;;;;;;0.00;0.00;;;9.30;99.20;;;;;;4161818;28;20080;-62
2021/12/30 02:50:03;;;;;;;0.00;0.00;;;9.20;99.20;;;;;;4148176;28;20628;-61
2021/12/30 02:52:25;;;;;;;0.00;0.00;;;9.20;99.20;;;;;;4161411;28;20056;-61
2021/12/30 02:54:47;;;;;;;0.00;0.00;;;9.30;99.20;;;;;;4148355;28;20136;-62
2021/12/30 02:57:11;;;;;;;0.00;0.00;;;9.40;99.00;;;;;;4161816;28;20049;-60
2021/12/30 02:59:34;;;;;;;0.00;0.00;;;9.40;98.90;;;;;;4175620;28;20517;-61
2021/12/30 03:01:56;;;;;;;0.00;0.00;;;9.40;99.10;;;;;;4175506;28;20073;-60
2021/12/30 03:04:19;;;;;;;0.00;0.00;;;9.30;99.40;;;;;;4145237;28;20053;-61
2021/12/30 03:06:42;;;;;;;0.00;0.00;;;9.10;99.70;;;;;;4145648;28;20124;-61
2021/12/30 03:09:04;;;;;;;0.00;0.00;;;9.30;99.50;;;;;;4145525;28;20042;-60
2021/12/30 03:11:28;;;;;;;0.00;0.00;;;9.30;99.40;;;;;;4145182;28;20082;-60
2021/12/30 03:13:53;;;;;;;0.00;0.00;;;9.40;99.20;;;;;;4131481;28;20320;-60
2021/12/30 03:16:20;;;;;;;0.00;0.00;;;9.50;98.90;;;;;;4145326;28;20052;-60
2021/12/30 03:18:45;;;;;;;0.00;0.00;;;9.50;99.00;;;;;;4147944;28;20573;-61
2021/12/30 03:21:09;;;;;;;0.00;0.00;;;9.40;99.20;;;;;;4154663;28;20453;-61
2021/12/30 03:23:33;;;;;;;0.00;0.00;;;9.50;99.30;;;;;;4161482;28;20080;-61
2021/12/30 03:25:55;;;;;;;0.00;0.00;;;9.60;99.00;;;;;;4161814;28;20111;-61
2021/12/30 03:28:19;;;;;;;0.00;0.00;;;9.70;98.80;;;;;;4176868;28;20069;-62
2021/12/30 03:30:41;;;;;;;0.00;0.00;;;9.70;98.80;;;;;;4161425;28;20048;-61
2021/12/30 03:33:04;;;;;;;0.00;0.00;;;9.60;98.70;;;;;;4174982;28;20037;-61
2021/12/30 03:35:27;;;;;;;0.00;0.00;;;9.60;98.80;;;;;;4161510;28;20055;-61
2021/12/30 03:37:49;;;;;;;0.00;0.00;;;9.70;98.90;;;;;;4175324;28;20052;-61
2021/12/30 03:40:16;;;;;;;0.00;0.00;;;9.70;98.80;;;;;;4161398;28;20061;-60
2021/12/30 03:42:39;;;;;;;0.00;0.00;;;9.60;99.20;;;;;;4173722;28;20081;-61
2021/12/30 03:45:05;;;;;;;0.00;0.00;;;9.60;99.60;;;;;;4161373;28;20042;-61
2021/12/30 03:47:27;;;;;;;0.00;0.00;;;9.60;99.80;;;;;;4161363;28;20124;-61
2021/12/30 03:49:50;;;;;;;0.00;0.00;;;9.70;99.70;;;;;;4161541;28;20511;-60
2021/12/30 03:52:19;;;;;;;0.00;0.00;;;9.70;99.70;;;;;;4160937;28;20107;-61
2021/12/30 03:54:42;;;;;;;0.00;0.00;;;9.70;99.90;;;;;;4161014;28;20143;-60
2021/12/30 03:57:04;;;;;;;0.00;0.00;;;9.70;99.90;;;;;;4161266;28;20057;-61
2021/12/30 03:59:27;;;;;;;0.00;0.00;;;9.80;99.90;;;;;;4161482;28;20415;-60
2021/12/30 04:01:49;;;;;;;0.00;0.00;;;9.80;99.90;;;;;;4151593;28;20393;-61
2021/12/30 04:04:12;;;;;;;0.00;0.00;;;9.70;99.90;;;;;;4158578;28;20124;-61
2021/12/30 04:06:34;;;;;;;0.00;0.00;;;9.60;99.80;;;;;;4144674;28;20487;-61
2021/12/30 04:08:58;;;;;;;0.00;0.00;;;9.70;99.50;;;;;;4145088;28;20045;-61
2021/12/30 04:11:26;;;;;;;0.00;0.00;;;9.80;99.20;;;;;;4131088;28;20451;-61
2021/12/30 04:13:49;;;;;;;0.00;0.00;;;9.80;99.20;;;;;;4144764;28;20046;-62
2021/12/30 04:16:12;;;;;;;0.00;0.00;;;9.80;99.10;;;;;;4144935;28;20073;-60
2021/12/30 04:18:35;;;;;;;0.00;0.00;;;9.70;99.10;;;;;;4147023;28;20045;-59
2021/12/30 04:20:57;;;;;;;0.00;0.00;;;9.60;99.50;;;;;;4155586;28;20100;-59
2021/12/30 04:23:20;;;;;;;0.00;0.00;;;9.80;99.90;;;;;;4144966;28;20448;-59
2021/12/30 04:25:42;;;;;;;0.00;0.00;;;9.90;99.90;;;;;;4144931;28;20462;-61
2021/12/30 04:28:06;;;;;;;0.00;0.00;;;10.00;99.90;;;;;;4145032;28;20046;-62
2021/12/30 04:30:29;;;;;;;0.00;0.00;;;10.00;99.90;;;;;;4147380;28;20057;-61
2021/12/30 04:33:02;;;;;;;0.00;0.00;;;10.00;99.70;;;;;;4160628;28;20048;-60
2021/12/30 04:35:25;;;;;;;0.00;0.00;;;9.90;99.40;;;;;;4147513;28;20060;-61
2021/12/30 04:37:47;;;;;;;0.00;0.00;;;9.80;99.20;;;;;;4147478;28;20108;-61
2021/12/30 04:40:12;;;;;;;0.00;0.00;;;9.70;98.90;;;;;;4147375;28;20072;-61
2021/12/30 04:42:34;;;;;;;0.00;0.00;;;9.60;99.00;;;;;;4146889;28;20057;-60
2021/12/30 04:44:57;;;;;;;0.00;0.00;;;9.50;98.60;;;;;;4161215;28;20111;-60
2021/12/30 04:47:20;;;;;;;0.00;0.00;;;9.40;98.70;;;;;;4155981;28;20058;-60
2021/12/30 04:49:42;;;;;;;0.00;0.00;;;9.50;98.60;;;;;;4152059;28;20073;-59
2021/12/30 04:52:05;;;;;;;0.00;0.00;;;9.30;98.60;;;;;;4147008;28;20120;-61
2021/12/30 04:54:27;;;;;;;0.00;0.00;;;9.30;98.50;;;;;;4161873;28;20596;-63
2021/12/30 04:56:51;;;;;;;0.00;0.00;;;9.20;98.40;;;;;;4147427;28;20156;-61
2021/12/30 04:59:13;;;;;;;0.00;0.00;;;9.10;98.60;;;;;;4147398;28;20554;-60
2021/12/30 05:01:35;;;;;;;0.00;0.00;;;9.10;98.90;;;;;;4160780;28;20179;-62
2021/12/30 05:03:58;;;;;;;0.00;0.00;;;9.10;99.30;;;;;;4147295;28;20492;-62
2021/12/30 05:06:20;;;;;;;0.00;0.00;;;9.10;99.20;;;;;;4160405;28;20041;-62
2021/12/30 05:08:43;;;;;;;0.00;0.00;;;9.20;99.30;;;;;;4147165;28;20053;-59
2021/12/30 05:11:05;;;;;;;0.00;0.00;;;9.40;99.10;;;;;;4146935;28;20558;-62
2021/12/30 05:13:28;;;;;;;0.00;0.00;;;9.40;99.20;;;;;;4160652;28;20045;-62
2021/12/30 05:15:50;;;;;;;0.00;0.00;;;9.40;99.40;;;;;;4146999;28;20056;-61
2021/12/30 05:18:13;;;;;;;0.00;0.00;;;9.40;99.50;;;;;;4147004;28;20140;-61
2021/12/30 05:20:37;;;;;;;0.00;0.00;;;9.50;99.90;;;;;;4146522;28;20104;-60
2021/12/30 05:23:00;;;;;;;0.00;0.00;;;9.50;99.90;;;;;;4160808;28;20430;-59
2021/12/30 05:25:22;;;;;;;0.00;0.00;;;9.60;99.80;;;;;;4147068;28;20080;-63
2021/12/30 05:27:45;;;;;;;0.00;0.00;;;9.70;99.90;;;;;;4133065;28;20138;-63
2021/12/30 05:30:10;;;;;;;0.00;0.00;;;9.70;99.90;;;;;;4146650;28;20138;-62
2021/12/30 05:32:32;;;;;;;0.00;0.00;;;9.70;99.90;;;;;;4146323;28;20049;-59
2021/12/30 05:34:55;;;;;;;0.00;0.00;;;9.80;99.90;;;;;;4152081;28;20053;-60
2021/12/30 05:37:17;;;;;;;0.00;0.00;;;9.90;99.90;;;;;;4155090;28;20068;-60
2021/12/30 05:39:41;;;;;;;0.00;0.00;;;10.00;99.80;;;;;;4151398;28;20121;-60
2021/12/30 05:42:04;;;;;;;0.00;0.00;;;10.00;99.60;;;;;;4160351;28;20049;-60
2021/12/30 05:44:26;;;;;;;0.00;0.00;;;10.10;99.30;;;;;;4162753;28;20164;-60
2021/12/30 05:46:49;;;;;;;0.00;0.00;;;10.10;99.10;;;;;;4176901;28;20069;-60
2021/12/30 05:49:11;;;;;;;0.00;0.00;;;10.00;99.00;;;;;;4163137;28;20491;-60
2021/12/30 05:51:34;;;;;;;0.00;0.00;;;10.00;98.90;;;;;;4162911;28;20048;-60
2021/12/30 05:53:56;;;;;;;0.00;0.00;;;9.80;98.80;;;;;;4162961;28;20088;-60
2021/12/30 05:56:18;;;;;;;0.00;0.00;;;9.70;98.60;;;;;;4176389;28;20048;-60
2021/12/30 05:58:40;;;;;;;0.00;0.00;;;9.60;99.00;;;;;;4149772;28;20045;-60
2021/12/30 06:01:03;;;;;;;0.00;0.00;;;9.70;99.00;;;;;;4162691;28;20096;-60
2021/12/30 06:03:28;;;;;;;0.00;0.00;;;9.80;98.90;;;;;;4162891;28;20038;-60
2021/12/30 06:05:50;;;;;;;0.00;0.00;;;9.70;98.80;;;;;;4162876;28;20482;-60
2021/12/30 06:08:13;;;;;;;0.00;0.00;;;9.70;99.00;;;;;;4176420;28;20421;-61
2021/12/30 06:10:37;;;;;;;0.00;0.00;;;9.80;98.80;;;;;;4162357;28;20052;-60
2021/12/30 06:12:59;;;;;;;0.00;0.00;;;9.80;98.70;;;;;;4162509;28;20033;-60
2021/12/30 06:15:22;;;;;;;0.00;0.00;;;9.80;98.80;;;;;;4176448;28;20129;-60
2021/12/30 06:17:44;;;;;;;0.00;0.00;;;9.80;98.70;;;;;;4162387;28;20046;-60
2021/12/30 06:20:09;;;;;;;0.00;0.00;;;9.80;98.60;;;;;;4162479;28;20049;-59
2021/12/30 06:22:31;;;;;;;0.00;0.00;;;9.70;98.60;;;;;;4161914;28;20517;-63
2021/12/30 06:24:54;;;;;;;0.00;0.00;;;9.80;98.60;;;;;;4162475;28;20037;-59
2021/12/30 06:27:17;;;;;;;0.00;0.00;;;9.90;98.40;;;;;;4162134;28;20594;-60
2021/12/30 06:29:39;;;;;;;0.00;0.00;;;9.90;98.40;;;;;;4161982;28;20534;-59
2021/12/30 06:32:03;;;;;;;0.00;0.00;;;9.90;98.30;;;;;;4173061;28;20079;-59
2021/12/30 06:34:29;;;;;;;0.00;0.00;;;9.90;98.30;;;;;;4178146;28;20083;-59
2021/12/30 06:36:54;;;;;;;0.00;0.00;;;9.80;98.50;;;;;;4159734;28;20434;-60
2021/12/30 06:39:20;;;;;;;0.00;0.00;;;9.80;98.60;;;;;;4162002;28;20065;-60
2021/12/30 06:41:44;;;;;;;0.00;0.00;;;9.80;98.60;;;;;;4161929;28;20088;-61
2021/12/30 06:44:06;;;;;;;0.00;0.00;;;9.90;98.60;;;;;;4176039;28;20498;-60
2021/12/30 06:46:28;;;;;;;0.00;0.00;;;9.90;98.40;;;;;;4163039;28;20092;-60
2021/12/30 06:48:51;;;;;;;0.00;0.00;;;9.90;98.30;;;;;;4176203;28;20122;-59
2021/12/30 06:51:14;;;;;;;0.00;0.00;;;9.90;98.40;;;;;;4161798;28;20046;-59
2021/12/30 06:53:37;;;;;;;0.00;0.00;;;9.80;98.50;;;;;;4175852;28;20068;-60
2021/12/30 06:55:59;;;;;;;0.00;0.00;;;9.90;98.60;;;;;;4162100;28;20049;-60
2021/12/30 06:58:22;;;;;;;0.00;0.00;;;9.90;98.50;;;;;;4148083;28;20046;-60
2021/12/30 07:00:51;;;;;;;0.00;0.00;;;9.90;98.60;;;;;;4162039;28;20041;-60
2021/12/30 07:03:14;;;;;;;0.00;0.00;;;10.00;98.50;;;;;;4145706;28;20046;-60
2021/12/30 07:05:36;;;;;;;0.00;0.00;;;10.00;98.40;;;;;;4164810;28;20099;-60
2021/12/30 07:07:59;;;;;;;0.00;0.00;;;10.00;98.30;;;;;;4148113;28;20124;-60
2021/12/30 07:10:21;;;;;;;0.00;0.00;;;9.90;98.60;;;;;;4160968;28;20434;-61
2021/12/30 07:12:43;;;;;;;0.00;0.00;;;9.90;98.90;;;;;;4145727;28;20543;-61
2021/12/30 07:15:07;;;;;;;0.00;0.00;;;10.00;98.70;;;;;;4156324;28;20041;-60
2021/12/30 07:17:31;;;;;;;0.00;0.00;;;9.90;98.80;;;;;;4152138;28;20133;-60
2021/12/30 07:19:53;;;;;;;0.00;0.00;;;9.90;99.00;;;;;;4159159;28;20129;-60
2021/12/30 07:22:15;;;;;;;0.00;0.00;;;9.90;99.10;;;;;;4145153;28;20050;-59
2021/12/30 07:24:58;;;;;;;0.00;0.00;;;9.80;99.10;;;;;;4145009;28;20124;-60
2021/12/30 07:27:20;;;;;;;0.00;0.00;;;9.70;99.00;;;;;;4160256;28;20045;-59
2021/12/30 07:29:42;;;;;;;0.00;0.00;;;9.70;99.00;;;;;;4150278;28;20042;-60
2021/12/30 07:32:05;;;;;;;0.00;0.00;;;9.60;99.40;;;;;;4158855;28;20729;-60
2021/12/30 07:34:28;;;;;;;0.00;0.00;;;9.60;99.30;;;;;;4144747;28;20053;-59
2021/12/30 07:36:50;;;;;;;0.00;0.00;;;9.60;99.50;;;;;;4145771;28;20484;-59
2021/12/30 07:39:12;;;;;;;0.00;0.00;;;9.60;99.60;;;;;;4145557;28;20046;-59
2021/12/30 07:41:40;;;;;;;0.00;0.00;;;9.60;99.80;;;;;;4145009;28;20088;-60
2021/12/30 07:44:02;;;;;;;0.00;0.00;;;9.60;99.90;;;;;;4159107;28;20053;-60
2021/12/30 07:46:25;;;;;;;0.00;0.00;;;9.60;99.90;;;;;;4144946;28;20073;-63
2021/12/30 07:48:47;;;;;;;0.00;0.00;;;9.70;99.90;;;;;;4145397;28;20053;-62
2021/12/30 07:51:10;;;;;;;0.00;0.00;;;9.80;99.90;;;;;;4145014;28;20041;-60
2021/12/30 07:53:33;;;;;;;0.00;0.00;;;9.80;99.80;;;;;;4145414;28;20050;-61
2021/12/30 07:55:55;;;;;;;0.00;0.00;;;9.90;99.80;;;;;;4158858;28;20113;-60
2021/12/30 07:58:18;;;;;;;0.00;0.00;;;9.90;99.60;;;;;;4158861;28;20478;-62
2021/12/30 08:00:40;;;;;;;0.00;0.00;;;9.90;99.60;;;;;;4158867;28;20041;-62
2021/12/30 08:03:03;;;;;;;0.00;0.00;;;9.90;99.70;;;;;;4159103;28;20116;-62
2021/12/30 08:05:27;;;;;;;0.00;0.00;;;10.00;99.70;;;;;;4162129;28;20057;-62
2021/12/30 08:07:50;;;;;;;0.00;0.00;;;10.10;99.60;;;;;;4161889;28;20424;-62
2021/12/30 08:10:14;;;;;;;0.00;0.00;;;10.10;99.30;;;;;;4148265;28;20507;-62
2021/12/30 08:12:38;;;;;;;0.00;0.00;;;10.20;99.30;;;;;;4147600;28;20052;-62
2021/12/30 08:15:00;;;;;;;0.00;0.00;;;10.10;99.30;;;;;;4148096;28;20502;-62
2021/12/30 08:17:22;;;;;;;0.00;0.00;;;10.20;99.20;;;;;;4162115;28;20057;-61
2021/12/30 08:19:45;;;;;;;0.00;0.00;;;10.20;99.10;;;;;;4161892;28;20049;-62
2021/12/30 08:22:07;;;;;;;0.00;0.00;;;10.10;99.00;;;;;;4147900;28;20133;-62
2021/12/30 08:24:29;;;;;;;0.00;0.00;;;10.00;98.90;;;;;;4147558;28;20050;-62
2021/12/30 08:27:05;;;;;;;0.00;0.00;;;9.90;99.00;;;;;;4147932;28;20088;-62
2021/12/30 08:29:31;;;;;;;0.00;0.00;;;9.80;99.30;;;;;;4146617;28;20466;-62
2021/12/30 08:31:54;;;;;;;0.00;0.00;;;9.80;99.40;;;;;;4161380;28;20068;-62
2021/12/30 08:34:16;;;;;;;0.00;0.00;;;9.90;99.40;;;;;;4147590;28;20050;-61
2021/12/30 08:36:38;;;;;;;0.00;0.00;;;9.90;99.40;;;;;;4147749;28;20078;-62
2021/12/30 08:39:01;;;;;;;0.00;0.00;;;9.90;99.50;;;;;;4148033;28;20140;-62
2021/12/30 08:41:23;;;;;;;0.00;0.00;;;10.10;99.50;;;;;;4161114;28;20073;-62
2021/12/30 08:43:46;;;;;;;0.00;0.00;;;10.10;99.20;;;;;;4161236;28;20049;-62
2021/12/30 08:46:08;;;;;;;0.00;0.00;;;10.20;99.20;;;;;;4161429;28;20710;-61
2021/12/30 08:48:33;;;;;;;0.00;0.00;;;10.20;99.10;;;;;;4147184;28;20495;-61
2021/12/30 08:50:56;;;;;;;0.00;0.00;;;10.20;99.10;;;;;;4161094;28;20080;-62
2021/12/30 08:53:18;;;;;;;0.00;0.00;;;10.30;98.90;;;;;;4147329;28;20048;-62
2021/12/30 08:55:41;;;;;;;0.00;0.00;;;10.40;98.90;;;;;;4161325;28;20136;-62
2021/12/30 08:58:04;;;;;;;0.00;0.00;;;10.40;98.80;;;;;;4161290;28;20069;-62
2021/12/30 09:00:33;;;;;;;0.00;0.00;;;10.40;98.70;;;;;;4147286;28;20041;-62
2021/12/30 09:02:58;;;;;;;0.00;0.00;;;10.40;98.50;;;;;;4155647;28;20084;-61
2021/12/30 09:05:22;;;;;;;0.00;0.00;;;10.20;98.50;;;;;;4169220;28;20128;-62
2021/12/30 09:07:44;;;;;;;0.00;0.00;;;10.20;98.70;;;;;;4161092;28;20053;-63
2021/12/30 09:10:09;;;;;;;0.00;0.00;;;10.30;98.70;;;;;;4147122;28;20057;-62
2021/12/30 09:12:31;;;;;;;0.00;0.00;;;10.30;98.50;;;;;;4176894;28;20049;-61
2021/12/30 09:15:14;;;;;;;0.00;0.00;;;10.30;98.50;;;;;;4175977;28;20045;-62
2021/12/30 09:17:37;;;;;;;0.00;0.00;;;10.50;98.60;;;;;;4163620;28;20034;-62
2021/12/30 09:19:59;;;;;;;0.00;0.00;;;10.60;98.40;;;;;;4149741;28;20049;-63
2021/12/30 09:22:22;;;;;;;0.00;0.00;;;10.60;98.30;;;;;;4163035;28;20497;-63
2021/12/30 09:24:44;;;;;;;0.00;0.00;;;10.60;98.30;;;;;;4176995;28;20052;-62
2021/12/30 09:27:06;;;;;;;0.00;0.00;;;10.70;98.40;;;;;;4177482;28;20052;-63
2021/12/30 09:29:29;;;;;;;0.00;0.00;;;10.60;98.20;;;;;;4177249;28;20151;-63
2021/12/30 09:31:52;;;;;;;0.00;0.00;;;10.70;98.20;;;;;;4176342;28;20124;-62
2021/12/30 09:34:15;;;;;;;0.00;0.00;;;10.80;98.10;;;;;;4162911;28;20125;-63
2021/12/30 09:36:38;;;;;;;0.00;0.00;;;10.80;97.90;;;;;;4176562;28;20475;-62
2021/12/30 09:39:01;;;;;;;0.00;0.00;;;10.90;97.90;;;;;;4163365;28;20515;-62
2021/12/30 09:41:23;;;;;;;0.00;0.00;;;11.00;97.80;;;;;;4162847;28;20095;-62
2021/12/30 09:43:46;;;;;;;0.00;0.00;;;11.10;97.60;;;;;;4163057;28;20044;-63
2021/12/30 09:46:08;;;;;;;0.00;0.00;;;11.00;97.60;;;;;;4149523;28;20128;-63
2021/12/30 09:48:30;;;;;;;0.00;0.00;;;11.20;97.60;;;;;;4176673;28;20073;-62
2021/12/30 09:50:54;;;;;;;0.00;0.00;;;11.30;97.50;;;;;;4162818;28;20034;-62
2021/12/30 09:53:23;;;;;;;0.00;0.00;;;11.30;97.20;;;;;;4149178;28;20125;-62
2021/12/30 09:55:46;;;;;;;0.00;0.00;;;11.30;97.40;;;;;;4162972;28;20068;-62
2021/12/30 09:58:08;;;;;;;0.00;0.00;;;11.30;97.50;;;;;;4135792;28;20052;-62
2021/12/30 10:00:31;;;;;;;0.00;0.00;;;11.40;97.40;;;;;;4162433;28;20049;-62
2021/12/30 10:03:01;;;;;;;0.00;0.00;;;11.40;97.20;;;;;;4162716;28;20049;-62
2021/12/30 10:05:28;;;;;;;0.00;0.00;;;11.40;97.20;;;;;;4162837;28;20136;-62
2021/12/30 10:08:12;;;;;;;0.00;0.00;;;11.40;97.10;;;;;;4163122;28;20045;-61
2021/12/30 10:10:38;;;;;;;0.00;0.00;;;11.30;97.40;;;;;;4162463;28;20045;-62
2021/12/30 10:13:21;;;;;;;0.00;0.00;;;11.30;97.50;;;;;;4176653;28;20055;-62
2021/12/30 10:15:45;;;;;;;0.00;0.00;;;11.30;97.50;;;;;;4162342;28;20056;-61
2021/12/30 10:18:07;;;;;;;0.00;0.00;;;11.30;97.70;;;;;;4162605;28;20069;-61
2021/12/30 10:20:31;;;;;;;0.00;0.00;;;11.30;97.80;;;;;;4162382;28;20144;-61
2021/12/30 10:22:56;;;;;;;0.00;0.00;;;11.30;98.00;;;;;;4162235;28;20047;-61
2021/12/30 10:25:37;;;;;;;0.00;0.00;;;11.40;98.20;;;;;;4176359;28;20056;-61
2021/12/30 10:28:20;;;;;;;0.00;0.00;;;11.40;98.10;;;;;;4162197;28;20057;-63
2021/12/30 10:30:43;;;;;;;0.00;0.00;;;11.50;98.10;;;;;;4158071;28;20574;-60
2021/12/30 10:33:10;;;;;;;0.00;0.00;;;11.60;97.90;;;;;;4146100;28;20046;-61
2021/12/30 10:35:35;;;;;;;0.00;0.00;;;11.70;98.00;;;;;;4159702;28;20124;-61
2021/12/30 10:38:08;;;;;;;0.00;0.00;;;11.60;97.70;;;;;;4159700;28;20037;-61
2021/12/30 10:40:32;;;;;;;0.00;0.00;;;11.60;97.90;;;;;;4145222;28;20469;-61
2021/12/30 10:43:13;;;;;;;0.00;0.00;;;11.70;97.90;;;;;;4159374;28;20125;-61
2021/12/30 10:45:36;;;;;;;0.00;0.00;;;11.80;97.90;;;;;;4145502;28;20050;-61
2021/12/30 10:47:59;;;;;;;0.00;0.00;;;11.90;97.80;;;;;;4145591;28;20112;-61
2021/12/30 10:50:23;;;;;;;0.00;0.00;;;11.90;97.80;;;;;;4158758;28;20088;-62
2021/12/30 10:52:53;;;;;;;0.00;0.00;;;12.00;97.60;;;;;;4159404;28;20064;-61
2021/12/30 10:55:17;;;;;;;0.00;0.00;;;12.10;97.60;;;;;;4145272;28;20116;-62
2021/12/30 10:57:40;;;;;;;0.00;0.00;;;12.10;97.50;;;;;;4145677;28;20443;-61
2021/12/30 11:00:07;;;;;;;0.00;0.00;;;12.20;97.40;;;;;;4145590;28;20677;-60
2021/12/30 11:02:29;;;;;;;0.00;0.00;;;12.20;97.20;;;;;;4146097;28;20046;-61
2021/12/30 11:05:04;;;;;;;0.00;0.00;;;12.30;97.20;;;;;;4145375;28;20128;-61
2021/12/30 11:07:43;;;;;;;0.00;0.00;;;12.40;96.90;;;;;;4159171;28;20049;-61
2021/12/30 11:10:06;;;;;;;0.00;0.00;;;12.40;96.90;;;;;;4159065;28;20103;-61
2021/12/30 11:12:43;;;;;;;0.00;0.00;;;12.40;97.00;;;;;;4158553;28;20046;-61
2021/12/30 11:15:25;;;;;;;0.00;0.00;;;12.50;97.10;;;;;;4158895;28;20111;-61
2021/12/30 11:17:48;;;;;;;0.00;0.00;;;12.50;96.80;;;;;;4145621;28;20093;-61
2021/12/30 11:20:11;;;;;;;0.00;0.00;;;12.50;96.80;;;;;;4159209;28;20072;-62
2021/12/30 11:22:36;;;;;;;0.00;0.00;;;12.60;96.80;;;;;;4158369;28;20046;-61
2021/12/30 11:25:02;;;;;;;0.00;0.00;;;12.90;96.30;;;;;;4158969;28;20038;-61
2021/12/30 11:27:26;;;;;;;0.00;0.00;;;13.00;96.30;;;;;;4159074;28;20041;-61
2021/12/30 11:29:52;;;;;;;0.00;0.00;;;13.20;96.10;;;;;;4145336;28;20558;-61
2021/12/30 11:32:18;;;;;;;0.00;0.00;;;13.30;94.80;;;;;;4158726;28;20054;-61
2021/12/30 11:34:40;;;;;;;0.00;0.00;;;13.30;95.20;;;;;;4157783;28;20124;-61
2021/12/30 11:37:04;;;;;;;0.00;0.00;;;13.40;95.00;;;;;;4131743;28;20048;-61
2021/12/30 11:39:27;;;;;;;0.00;0.00;;;13.40;94.60;;;;;;4147551;28;20487;-61
2021/12/30 11:41:54;;;;;;;0.00;0.00;;;13.50;94.50;;;;;;4148388;28;20443;-62
2021/12/30 11:44:37;;;;;;;0.00;0.00;;;13.50;94.20;;;;;;4160300;28;20081;-62
2021/12/30 11:47:00;;;;;;;0.00;0.00;;;13.40;94.00;;;;;;4164277;28;20037;-63
2021/12/30 11:49:23;;;;;;;0.00;0.00;;;13.40;94.40;;;;;;4178851;28;20049;-62
2021/12/30 11:51:50;;;;;;;0.00;0.00;;;13.50;94.60;;;;;;4164356;28;20041;-63
2021/12/30 11:54:32;;;;;;;0.00;0.00;;;13.70;94.10;;;;;;4164372;28;20050;-61
2021/12/30 11:57:29;;;;;;;0.00;0.00;;;13.60;93.80;;;;;;4164287;28;20041;-60
2021/12/30 11:59:53;;;;;;;0.00;0.00;;;13.60;93.90;;;;;;4177786;28;20499;-61
2021/12/30 12:02:36;;;;;;;0.00;0.00;;;13.70;93.80;;;;;;4150476;28;20239;-61
2021/12/30 12:05:19;;;;;;;0.00;0.00;;;13.70;93.50;;;;;;4147789;28;20034;-61
2021/12/30 12:08:02;;;;;;;0.00;0.00;;;13.60;93.60;;;;;;4162088;28;20045;-61
2021/12/30 12:10:25;;;;;;;0.00;0.00;;;13.70;93.70;;;;;;4161252;28;20045;-61
2021/12/30 12:12:48;;;;;;;0.00;0.00;;;13.70;93.50;;;;;;4161950;28;20105;-61
2021/12/30 12:15:10;;;;;;;0.00;0.00;;;13.80;93.40;;;;;;4133256;28;20396;-60
2021/12/30 12:17:35;;;;;;;0.00;0.00;;;13.80;93.30;;;;;;4161392;28;20060;-60
2021/12/30 12:19:58;;;;;;;0.00;0.00;;;13.70;93.20;;;;;;4147123;28;20045;-60
2021/12/30 12:22:20;;;;;;;0.00;0.00;;;13.50;93.20;;;;;;4161173;28;20050;-62
2021/12/30 12:24:45;;;;;;;0.00;0.00;;;13.40;93.40;;;;;;4161535;28;20045;-60
2021/12/30 12:27:18;;;;;;;0.00;0.00;;;13.30;93.50;;;;;;4161926;28;20045;-63
2021/12/30 12:29:49;;;;;;;0.00;0.00;;;13.20;93.70;;;;;;4161529;28;20045;-62
2021/12/30 12:32:26;;;;;;;0.00;0.00;;;13.30;94.00;;;;;;4161426;28;20099;-63
2021/12/30 12:34:55;;;;;;;0.00;0.00;;;13.30;93.90;;;;;;4147032;28;20050;-65
2021/12/30 12:37:41;;;;;;;0.00;0.00;;;13.30;93.80;;;;;;4147896;28;20037;-65
2021/12/30 12:40:05;;;;;;;0.00;0.00;;;13.20;94.10;;;;;;4147598;28;20054;-65
2021/12/30 12:42:43;;;;;;;0.00;0.00;;;13.20;94.10;;;;;;4163425;28;20101;-61